createdAt,value
2019-04-04T00:01:48.686Z,60.23
2019-04-04T00:04:22.066Z,60.24
2019-04-04T00:06:57.823Z,60.34
2019-04-04T00:09:28.461Z,60.96
2019-04-04T00:12:00.460Z,60.97
2019-04-04T00:14:31.872Z,61.24
2019-04-04T00:17:03.779Z,61.54
2019-04-04T00:19:35.663Z,61.34
2019-04-04T00:22:07.624Z,61.43
2019-04-04T00:24:39.921Z,61.59
2019-04-04T00:27:13.858Z,61.92
2019-04-04T00:29:47.921Z,62.21
2019-04-04T00:32:21.117Z,61.60
2019-04-04T00:34:52.084Z,61.75
2019-04-04T00:37:24.179Z,62.22
2019-04-04T00:39:55.483Z,62.47
2019-04-04T00:42:27.443Z,62.74
2019-04-04T00:44:59.449Z,63.19
2019-04-04T00:47:32.644Z,63.36
2019-04-04T00:50:06.673Z,63.72
2019-04-04T00:52:40.742Z,64.32
2019-04-04T00:55:15.552Z,64.23
2019-04-04T00:57:45.784Z,64.46
2019-04-04T01:00:17.701Z,64.56
2019-04-04T01:02:49.783Z,64.47
2019-04-04T01:05:21.862Z,64.22
2019-04-04T01:07:53.715Z,64.62
2019-04-04T01:10:25.702Z,64.61
2019-04-04T01:12:57.698Z,65.07
2019-04-04T01:15:30.842Z,65.79
2019-04-04T01:18:03.999Z,66.64
2019-04-04T01:20:37.173Z,66.11
2019-04-04T01:23:09.191Z,66.25
2019-04-04T01:25:42.261Z,65.82
2019-04-04T01:28:14.231Z,65.44
2019-04-04T01:30:46.191Z,65.72
2019-04-04T01:33:19.902Z,66.20
2019-04-04T01:35:53.686Z,66.17
2019-04-04T01:38:27.110Z,66.80
2019-04-04T01:40:59.173Z,67.36
2019-04-04T01:43:31.043Z,67.37
2019-04-04T01:46:02.901Z,67.54
2019-04-04T01:48:34.711Z,67.05
2019-04-04T01:51:07.939Z,67.62
2019-04-04T01:53:40.099Z,67.77
2019-04-04T01:56:11.343Z,67.22
2019-04-04T01:58:44.918Z,66.77
2019-04-04T02:01:17.127Z,67.00
2019-04-04T02:03:49.008Z,67.00
2019-04-04T02:06:20.623Z,67.29
2019-04-04T02:08:52.381Z,67.31
2019-04-04T02:11:24.319Z,67.29
2019-04-04T02:13:56.199Z,67.56
2019-04-04T02:16:28.003Z,67.60
2019-04-04T02:18:59.870Z,67.58
2019-04-04T02:21:31.757Z,67.38
2019-04-04T02:24:03.670Z,67.47
2019-04-04T02:26:36.148Z,67.21
2019-04-04T02:29:09.040Z,67.68
2019-04-04T02:31:52.955Z,68.23
2019-04-04T02:34:22.041Z,68.34
2019-04-04T02:36:53.976Z,66.85
2019-04-04T02:39:27.298Z,66.56
2019-04-04T02:41:59.197Z,67.08
2019-04-04T02:44:32.108Z,67.58
2019-04-04T02:47:04.722Z,68.51
2019-04-04T02:49:35.941Z,68.20
2019-04-04T02:52:07.735Z,68.15
2019-04-04T02:54:39.626Z,68.61
2019-04-04T02:57:11.414Z,69.32
2019-04-04T02:59:43.254Z,69.48
2019-04-04T03:02:15.158Z,69.18
2019-04-04T03:04:47.321Z,68.96
2019-04-04T03:07:19.143Z,68.24
2019-04-04T03:09:51.163Z,68.51
2019-04-04T03:12:25.686Z,69.40
2019-04-04T03:14:56.126Z,69.99
2019-04-04T03:17:31.722Z,70.87
2019-04-04T03:20:03.235Z,70.75
2019-04-04T03:22:35.134Z,70.69
2019-04-04T03:25:07.244Z,70.99
2019-04-04T03:27:39.069Z,71.31
2019-04-04T03:30:14.411Z,71.08
2019-04-04T03:32:51.404Z,71.07
2019-04-04T03:35:26.088Z,71.86
2019-04-04T03:37:51.676Z,71.60
2019-04-04T03:40:25.711Z,73.31
2019-04-04T03:42:57.587Z,72.42
2019-04-04T03:45:29.400Z,72.18
2019-04-04T03:48:01.183Z,72.40
2019-04-04T03:50:33.028Z,72.72
2019-04-04T03:53:04.858Z,73.50
2019-04-04T03:55:38.863Z,73.91
2019-04-04T03:58:10.678Z,74.10
2019-04-04T04:00:42.576Z,74.29
2019-04-04T04:03:14.626Z,73.70
2019-04-04T04:05:46.494Z,73.02
2019-04-04T04:08:21.356Z,72.80
2019-04-04T04:10:52.953Z,73.13
2019-04-04T04:13:25.331Z,73.35
2019-04-04T04:15:56.523Z,73.71
2019-04-04T04:18:27.594Z,73.84
2019-04-04T04:20:59.374Z,73.29
2019-04-04T04:23:31.235Z,73.42
2019-04-04T04:26:03.194Z,74.00
2019-04-04T04:28:35.073Z,74.53
2019-04-04T04:31:06.906Z,75.54
2019-04-04T04:33:38.702Z,76.13
2019-04-04T04:36:15.348Z,75.98
2019-04-04T04:38:43.452Z,75.65
2019-04-04T04:41:14.587Z,75.38
2019-04-04T04:43:46.375Z,75.08
2019-04-04T04:46:18.210Z,75.52
2019-04-04T04:48:50.051Z,76.13
2019-04-04T04:51:21.282Z,76.45
2019-04-04T04:53:53.055Z,75.65
2019-04-04T04:56:24.947Z,75.34
2019-04-04T04:58:56.124Z,75.22
2019-04-04T05:01:27.853Z,75.66
2019-04-04T05:04:02.391Z,75.54
2019-04-04T05:06:35.235Z,75.16
2019-04-04T05:09:07.407Z,74.82
2019-04-04T05:11:39.297Z,74.59
2019-04-04T05:14:10.505Z,74.79
2019-04-04T05:16:42.405Z,74.83
2019-04-04T05:19:14.268Z,74.53
2019-04-04T05:21:46.251Z,74.48
2019-04-04T05:24:18.724Z,74.37
2019-04-04T05:26:50.050Z,74.34
2019-04-04T05:29:21.872Z,74.34
2019-04-04T05:31:53.870Z,74.09
2019-04-04T05:34:25.794Z,73.60
2019-04-04T05:36:57.614Z,73.56
2019-04-04T05:39:28.805Z,73.42
2019-04-04T05:42:00.382Z,73.11
2019-04-04T05:44:34.279Z,72.60
2019-04-04T05:47:05.790Z,72.52
2019-04-04T05:49:38.139Z,72.31
2019-04-04T05:52:10.532Z,71.84
2019-04-04T05:54:42.465Z,71.13
2019-04-04T05:57:14.333Z,70.83
2019-04-04T05:59:46.197Z,70.18
2019-04-04T06:02:18.115Z,70.24
2019-04-04T06:04:51.314Z,69.57
2019-04-04T06:07:23.521Z,69.72
2019-04-04T06:09:55.425Z,69.21
2019-04-04T06:12:27.257Z,69.12
2019-04-04T06:15:00.554Z,68.70
2019-04-04T06:17:32.724Z,68.48
2019-04-04T06:20:05.469Z,68.30
2019-04-04T06:22:37.409Z,68.35
2019-04-04T06:25:09.678Z,66.86
2019-04-04T06:27:41.545Z,67.03
2019-04-04T06:30:13.451Z,66.42
2019-04-04T06:32:45.301Z,65.90
2019-04-04T06:35:16.449Z,65.94
2019-04-04T06:37:49.158Z,66.30
2019-04-04T06:40:21.943Z,65.55
2019-04-04T06:42:53.165Z,65.59
2019-04-04T06:45:24.331Z,65.86
2019-04-04T06:47:57.557Z,65.16
2019-04-04T06:50:29.646Z,65.21
2019-04-04T06:53:01.548Z,64.95
2019-04-04T06:55:38.327Z,64.51
2019-04-04T06:58:09.358Z,64.19
2019-04-04T07:00:42.066Z,63.86
2019-04-04T07:03:13.460Z,63.49
2019-04-04T07:05:45.426Z,63.78
2019-04-04T07:08:16.590Z,63.97
2019-04-04T07:10:57.471Z,63.73
2019-04-04T07:13:26.764Z,63.27
2019-04-04T07:16:06.130Z,62.67
2019-04-04T07:18:29.136Z,62.14
2019-04-04T07:21:03.438Z,61.87
2019-04-04T07:23:34.672Z,62.15
2019-04-04T07:26:06.896Z,61.62
2019-04-04T07:28:39.812Z,61.48
2019-04-04T07:31:11.708Z,60.88
2019-04-04T07:33:43.642Z,60.34
2019-04-04T07:36:15.496Z,60.17
2019-04-04T07:38:46.869Z,59.21
2019-04-04T07:41:18.604Z,59.04
2019-04-04T07:43:51.603Z,59.16
2019-04-04T07:46:23.373Z,59.06
2019-04-04T07:48:54.572Z,58.36
2019-04-04T07:51:28.111Z,58.37
2019-04-04T07:54:00.026Z,58.18
2019-04-04T07:56:31.876Z,57.93
2019-04-04T07:59:03.754Z,56.91
2019-04-04T08:01:34.940Z,57.18
2019-04-04T08:04:06.820Z,56.67
2019-04-04T08:06:38.827Z,56.33
2019-04-04T08:09:11.844Z,55.99
2019-04-04T08:11:43.853Z,56.16
2019-04-04T08:14:15.722Z,55.39
2019-04-04T08:16:47.594Z,55.73
2019-04-04T08:19:19.440Z,55.99
2019-04-04T08:21:51.310Z,55.99
2019-04-04T08:24:23.187Z,55.04
2019-04-04T08:26:55.069Z,54.93
2019-04-04T08:29:26.924Z,54.58
2019-04-04T08:31:58.776Z,54.46
2019-04-04T08:34:31.139Z,54.87
2019-04-04T08:37:04.070Z,53.20
2019-04-04T08:39:35.958Z,52.95
2019-04-04T08:42:08.449Z,51.79
2019-04-04T08:44:40.300Z,51.63
2019-04-04T08:47:12.128Z,51.69
2019-04-04T08:49:44.105Z,50.86
2019-04-04T08:52:17.398Z,50.94
2019-04-04T08:54:49.526Z,50.15
2019-04-04T08:57:21.367Z,49.63
2019-04-04T08:59:52.582Z,49.91
2019-04-04T09:02:24.481Z,49.59
2019-04-04T09:04:55.645Z,49.17
2019-04-04T09:07:27.841Z,49.02
2019-04-04T09:09:59.766Z,49.14
2019-04-04T09:12:31.779Z,48.51
2019-04-04T09:15:02.990Z,48.51
2019-04-04T09:17:34.200Z,48.55
2019-04-04T09:20:09.480Z,48.45
2019-04-04T09:22:41.229Z,48.37
2019-04-04T09:25:13.880Z,48.48
2019-04-04T09:27:45.135Z,48.05
2019-04-04T09:30:18.855Z,47.76
2019-04-04T09:32:50.739Z,47.11
2019-04-04T09:35:22.624Z,47.04
2019-04-04T09:37:54.551Z,46.68
2019-04-04T09:40:26.426Z,45.95
2019-04-04T09:42:58.342Z,45.58
2019-04-04T09:45:30.727Z,45.54
2019-04-04T09:48:02.623Z,45.65
2019-04-04T09:50:43.219Z,44.66
2019-04-04T09:53:15.080Z,45.17
2019-04-04T09:55:46.939Z,44.87
2019-04-04T09:58:18.892Z,44.96
2019-04-04T10:00:51.513Z,45.17
2019-04-04T10:03:23.433Z,44.85
2019-04-04T10:05:54.662Z,44.34
2019-04-04T10:08:26.424Z,43.43
2019-04-04T10:10:58.327Z,43.39
2019-04-04T10:13:30.211Z,43.79
2019-04-04T10:16:02.023Z,43.42
2019-04-04T10:18:33.974Z,43.35
2019-04-04T10:21:11.606Z,43.86
2019-04-04T10:23:39.477Z,42.89
2019-04-04T10:26:11.449Z,42.20
2019-04-04T10:28:43.615Z,42.88
2019-04-04T10:31:15.587Z,42.59
2019-04-04T10:33:47.504Z,42.30
2019-04-04T10:36:19.434Z,40.73
2019-04-04T10:38:50.644Z,41.46
2019-04-04T10:41:22.547Z,41.91
2019-04-04T10:43:54.387Z,41.98
2019-04-04T10:46:26.339Z,41.59
2019-04-04T10:48:57.573Z,41.51
2019-04-04T10:51:29.377Z,40.81
2019-04-04T10:54:01.383Z,41.51
2019-04-04T10:56:33.365Z,39.81
2019-04-04T10:59:05.458Z,37.73
2019-04-04T11:01:36.643Z,38.00
2019-04-04T11:04:08.635Z,37.61
2019-04-04T11:06:39.928Z,36.63
2019-04-04T11:09:11.893Z,36.79
2019-04-04T11:11:43.942Z,36.05
2019-04-04T11:14:15.871Z,36.14
2019-04-04T11:16:47.053Z,36.63
2019-04-04T11:19:30.373Z,35.98
2019-04-04T11:21:51.692Z,36.60
2019-04-04T11:24:23.057Z,36.45
2019-04-04T11:26:54.951Z,35.82
2019-04-04T11:29:26.902Z,35.19
2019-04-04T11:31:58.122Z,35.24
2019-04-04T11:34:29.242Z,34.77
2019-04-04T11:37:01.234Z,35.69
2019-04-04T11:39:32.524Z,35.20
2019-04-04T11:42:03.734Z,34.85
2019-04-04T11:44:35.588Z,35.28
2019-04-04T11:47:06.773Z,34.44
2019-04-04T11:49:37.940Z,34.77
2019-04-04T11:52:09.811Z,34.71
2019-04-04T11:55:01.521Z,35.04
2019-04-04T11:57:34.042Z,35.68
2019-04-04T12:00:06.019Z,34.92
2019-04-04T12:02:39.021Z,35.21
2019-04-04T12:05:10.347Z,34.96
2019-04-04T12:07:42.179Z,35.17
2019-04-04T12:10:14.622Z,34.12
2019-04-04T12:12:46.456Z,33.55
2019-04-04T12:15:20.090Z,34.02
2019-04-04T12:17:53.154Z,32.80
2019-04-04T12:20:25.158Z,32.10
2019-04-04T12:22:57.160Z,32.90
2019-04-04T12:25:28.462Z,33.11
2019-04-04T12:28:00.350Z,33.39
2019-04-04T12:30:32.281Z,33.66
2019-04-04T12:33:04.154Z,33.07
2019-04-04T12:35:36.064Z,33.41
2019-04-04T12:38:08.004Z,33.31
2019-04-04T12:40:39.230Z,33.28
2019-04-04T12:43:11.062Z,33.11
2019-04-04T12:45:43.002Z,32.94
2019-04-04T12:48:14.866Z,32.30
2019-04-04T12:50:48.395Z,31.86
2019-04-04T12:53:19.727Z,32.64
2019-04-04T12:55:50.862Z,32.94
2019-04-04T12:58:22.636Z,32.95
2019-04-04T13:00:54.900Z,32.69
2019-04-04T13:03:26.762Z,32.66
2019-04-04T13:05:58.685Z,32.63
2019-04-04T13:08:30.843Z,32.99
2019-04-04T13:11:02.062Z,31.19
2019-04-04T13:13:33.949Z,31.64
2019-04-04T13:16:05.099Z,30.80
2019-04-04T13:18:36.938Z,30.60
2019-04-04T13:21:08.863Z,30.22
2019-04-04T13:23:40.770Z,30.70
2019-04-04T13:26:12.182Z,31.01
2019-04-04T13:28:43.930Z,31.73
2019-04-04T13:31:15.292Z,30.97
2019-04-04T13:33:46.448Z,30.88
2019-04-04T13:36:24.662Z,30.99
2019-04-04T13:39:01.914Z,30.97
2019-04-04T13:41:38.788Z,31.15
2019-04-04T13:44:23.447Z,31.20
2019-04-04T13:46:55.602Z,30.99
2019-04-04T13:49:51.321Z,32.20
2019-04-04T13:52:20.302Z,31.97
2019-04-04T13:54:52.135Z,31.25
2019-04-04T13:57:23.464Z,31.12
2019-04-04T13:59:55.396Z,31.23
2019-04-04T14:02:26.656Z,31.00
2019-04-04T14:05:09.172Z,30.77
2019-04-04T14:07:31.604Z,31.15
2019-04-04T14:10:05.659Z,31.42
2019-04-04T14:12:36.544Z,31.00
2019-04-04T14:15:08.977Z,31.02
2019-04-04T14:17:43.489Z,31.18
2019-04-04T14:20:15.275Z,31.03
2019-04-04T14:22:47.739Z,31.01
2019-04-04T14:25:20.689Z,31.01
2019-04-04T14:27:53.642Z,31.19
2019-04-04T14:30:26.687Z,31.14
2019-04-04T14:32:58.089Z,31.39
2019-04-04T14:35:30.013Z,31.50
2019-04-04T14:38:01.921Z,31.57
2019-04-04T14:40:34.399Z,31.60
2019-04-04T14:43:06.349Z,31.93
2019-04-04T14:45:37.553Z,32.18
2019-04-04T14:48:10.982Z,32.37
2019-04-04T14:50:42.931Z,32.47
2019-04-04T14:53:14.877Z,32.22
2019-04-04T14:55:46.093Z,32.53
2019-04-04T14:58:17.912Z,32.58
2019-04-04T15:00:49.910Z,32.87
2019-04-04T15:03:23.173Z,32.82
2019-04-04T15:05:54.374Z,32.70
2019-04-04T15:08:25.463Z,32.25
2019-04-04T15:10:57.355Z,32.54
2019-04-04T15:13:29.382Z,32.76
2019-04-04T15:16:17.666Z,32.97
2019-04-04T15:18:49.600Z,32.96
2019-04-04T15:21:21.515Z,32.95
2019-04-04T15:23:53.435Z,32.75
2019-04-04T15:26:25.616Z,32.58
2019-04-04T15:28:57.706Z,32.61
2019-04-04T15:31:31.157Z,32.99
2019-04-04T15:34:03.185Z,33.03
2019-04-04T15:36:35.074Z,33.21
2019-04-04T15:39:08.503Z,33.25
2019-04-04T15:41:40.507Z,33.53
2019-04-04T15:44:12.492Z,33.83
2019-04-04T15:46:44.502Z,33.56
2019-04-04T15:49:17.400Z,33.85
2019-04-04T15:51:49.328Z,33.80
2019-04-04T15:54:21.286Z,34.02
2019-04-04T15:56:53.326Z,34.18
2019-04-04T15:59:24.552Z,34.36
2019-04-04T16:01:56.471Z,34.21
2019-04-04T16:04:27.780Z,34.21
2019-04-04T16:06:59.694Z,34.23
2019-04-04T16:09:30.935Z,34.29
2019-04-04T16:12:02.916Z,34.22
2019-04-04T16:14:34.840Z,33.96
2019-04-04T16:17:06.973Z,34.08
2019-04-04T16:19:38.876Z,34.04
2019-04-04T16:22:10.816Z,33.93
2019-04-04T16:24:42.832Z,33.84
2019-04-04T16:27:14.874Z,33.76
2019-04-04T16:29:46.958Z,34.03
2019-04-04T16:32:18.176Z,34.16
2019-04-04T16:34:52.447Z,34.22
2019-04-04T16:37:22.819Z,34.29
2019-04-04T16:39:53.971Z,34.47
2019-04-04T16:42:25.800Z,34.67
2019-04-04T16:44:57.724Z,34.63
2019-04-04T16:47:29.687Z,34.63
2019-04-04T16:50:01.688Z,34.65
2019-04-04T16:52:33.892Z,34.51
2019-04-04T16:55:06.436Z,34.61
2019-04-04T16:57:38.355Z,34.64
2019-04-04T17:00:11.624Z,34.75
2019-04-04T17:02:42.948Z,34.67
2019-04-04T17:05:14.746Z,35.15
2019-04-04T17:07:46.731Z,35.53
2019-04-04T17:10:18.180Z,36.05
2019-04-04T17:12:50.139Z,36.69
2019-04-04T17:15:21.542Z,36.82
2019-04-04T17:17:53.452Z,37.07
2019-04-04T17:20:25.670Z,37.42
2019-04-04T17:22:57.088Z,37.90
2019-04-04T17:25:29.030Z,38.04
2019-04-04T17:28:00.262Z,37.93
2019-04-04T17:30:32.389Z,37.88
2019-04-04T17:33:04.594Z,38.29
2019-04-04T17:35:37.098Z,38.49
2019-04-04T17:38:09.162Z,38.46
2019-04-04T17:40:41.247Z,39.06
2019-04-04T17:43:12.806Z,39.30
2019-04-04T17:45:44.084Z,39.41
2019-04-04T17:48:16.556Z,39.99
2019-04-04T17:50:48.432Z,40.18
2019-04-04T17:53:20.320Z,40.45
2019-04-04T17:55:54.833Z,40.84
2019-04-04T17:58:26.345Z,41.04
2019-04-04T18:00:57.605Z,41.67
2019-04-04T18:03:28.858Z,42.46
2019-04-04T18:06:00.872Z,43.34
2019-04-04T18:08:32.895Z,43.31
2019-04-04T18:11:05.167Z,43.60
2019-04-04T18:13:37.183Z,43.89
2019-04-04T18:16:08.654Z,44.13
2019-04-04T18:18:39.906Z,44.63
2019-04-04T18:21:11.775Z,45.03
2019-04-04T18:23:45.715Z,45.30
2019-04-04T18:26:17.312Z,45.62
2019-04-04T18:28:49.409Z,45.81
2019-04-04T18:31:26.259Z,46.30
2019-04-04T18:33:57.551Z,46.64
2019-04-04T18:36:28.959Z,46.79
2019-04-04T18:39:00.195Z,46.98
2019-04-04T18:41:34.143Z,47.35
2019-04-04T18:44:07.855Z,48.00
2019-04-04T18:46:39.291Z,47.85
2019-04-04T18:49:15.755Z,48.00
2019-04-04T18:51:47.202Z,48.39
2019-04-04T18:54:19.242Z,48.20
2019-04-04T18:56:57.592Z,48.42
2019-04-04T18:59:29.934Z,48.65
2019-04-04T19:02:03.523Z,48.40
2019-04-04T19:04:35.484Z,48.59
2019-04-04T19:07:07.560Z,48.80
2019-04-04T19:09:39.654Z,49.21
2019-04-04T19:12:10.872Z,49.05
2019-04-04T19:14:42.222Z,48.99
2019-04-04T19:17:14.154Z,48.82
2019-04-04T19:19:46.084Z,48.95
2019-04-04T19:22:17.540Z,48.92
2019-04-04T19:24:50.055Z,49.00
2019-04-04T19:27:21.866Z,48.94
2019-04-04T19:29:55.473Z,49.11
2019-04-04T19:32:26.751Z,49.12
2019-04-04T19:34:58.654Z,49.05
2019-04-04T19:37:30.571Z,48.79
2019-04-04T19:40:01.933Z,49.21
2019-04-04T19:42:33.909Z,48.61
2019-04-04T19:45:08.785Z,49.65
2019-04-04T19:47:40.142Z,49.82
2019-04-04T19:50:11.656Z,49.76
2019-04-04T19:52:43.657Z,49.67
2019-04-04T19:55:15.725Z,49.72
2019-04-04T19:57:46.993Z,49.62
2019-04-04T20:00:19.604Z,50.70
2019-04-04T20:02:50.903Z,51.00
2019-04-04T20:05:22.682Z,50.81
2019-04-04T20:07:54.668Z,50.75
2019-04-04T20:10:25.909Z,50.41
2019-04-04T20:12:57.761Z,50.53
2019-04-04T20:15:29.688Z,50.64
2019-04-04T20:18:01.550Z,50.99
2019-04-04T20:20:33.963Z,50.87
2019-04-04T20:23:05.824Z,50.58
2019-04-04T20:25:37.715Z,51.31
2019-04-04T20:28:09.015Z,50.68
2019-04-04T20:30:40.920Z,50.90
2019-04-04T20:33:12.802Z,51.40
2019-04-04T20:35:44.790Z,51.26
2019-04-04T20:38:16.598Z,51.07
2019-04-04T20:40:48.018Z,51.67
2019-04-04T20:43:19.807Z,52.01
2019-04-04T20:45:52.006Z,51.93
2019-04-04T20:48:23.875Z,52.06
2019-04-04T20:50:55.821Z,52.13
2019-04-04T20:53:27.678Z,52.19
2019-04-04T20:55:59.950Z,52.31
2019-04-04T20:58:31.102Z,52.60
2019-04-04T21:01:02.342Z,51.98
2019-04-04T21:03:34.218Z,52.48
2019-04-04T21:06:06.129Z,52.42
2019-04-04T21:08:38.963Z,52.76
2019-04-04T21:11:10.873Z,52.52
2019-04-04T21:13:42.165Z,52.89
2019-04-04T21:16:13.951Z,53.15
2019-04-04T21:18:45.879Z,52.92
2019-04-04T21:21:17.194Z,53.43
2019-04-04T21:23:48.897Z,53.87
2019-04-04T21:26:20.124Z,53.43
2019-04-04T21:28:51.259Z,53.11
2019-04-04T21:31:22.406Z,53.22
2019-04-04T21:33:53.476Z,53.63
2019-04-04T21:36:25.287Z,54.10
2019-04-04T21:38:57.205Z,53.84
2019-04-04T21:41:29.030Z,54.23
2019-04-04T21:44:08.837Z,53.19
2019-04-04T21:46:34.390Z,53.58
2019-04-04T21:49:06.277Z,53.64
2019-04-04T21:51:38.109Z,54.34
2019-04-04T21:54:09.928Z,54.40
2019-04-04T21:56:41.824Z,54.60
2019-04-04T21:59:13.689Z,54.86
2019-04-04T22:01:45.875Z,55.10
2019-04-04T22:04:17.665Z,54.61
2019-04-04T22:06:49.567Z,54.70
2019-04-04T22:09:21.571Z,54.86
2019-04-04T22:11:53.427Z,55.25
2019-04-04T22:14:25.357Z,55.09
2019-04-04T22:16:57.248Z,55.40
2019-04-04T22:19:29.221Z,55.33
2019-04-04T22:22:00.411Z,55.53
2019-04-04T22:24:31.597Z,55.91
2019-04-04T22:27:02.967Z,55.85
2019-04-04T22:29:34.138Z,55.73
2019-04-04T22:32:05.953Z,55.84
2019-04-04T22:34:37.741Z,55.59
2019-04-04T22:37:09.585Z,55.77
2019-04-04T22:39:41.401Z,56.26
2019-04-04T22:42:13.181Z,56.56
2019-04-04T22:44:45.424Z,55.83
2019-04-04T22:47:16.523Z,55.61
2019-04-04T22:49:48.353Z,55.94
2019-04-04T22:52:20.172Z,56.02
2019-04-04T22:54:52.001Z,56.21
2019-04-04T22:57:23.858Z,55.70
2019-04-04T22:59:55.799Z,56.02
2019-04-04T23:02:27.747Z,55.84
2019-04-04T23:04:59.632Z,56.00
2019-04-04T23:07:31.521Z,55.83
2019-04-04T23:10:03.439Z,56.37
2019-04-04T23:12:35.301Z,56.65
2019-04-04T23:15:09.389Z,56.30
2019-04-04T23:17:41.295Z,56.00
2019-04-04T23:20:13.177Z,55.91
2019-04-04T23:22:52.786Z,55.69
2019-04-04T23:25:18.765Z,56.09
2019-04-04T23:27:50.592Z,56.89
2019-04-04T23:30:22.461Z,55.94
2019-04-04T23:32:54.406Z,56.03
2019-04-04T23:35:26.207Z,55.93
2019-04-04T23:37:58.048Z,56.81
2019-04-04T23:40:29.884Z,57.58
2019-04-04T23:43:01.728Z,57.22
2019-04-04T23:45:33.625Z,57.83
2019-04-04T23:48:05.483Z,58.97
2019-04-04T23:50:37.380Z,58.59
2019-04-04T23:53:09.155Z,58.45
2019-04-04T23:55:40.375Z,58.25
2019-04-04T23:58:12.286Z,57.15
